sensor_id;sensor_type;location;lat;lon;timestamp;P1;durP1;ratioP1;P2;durP2;ratioP2
10537;SDS011;5317;49.048;8.468;2022-07-19T00:00:25;3.03;;;2.00;;
10537;SDS011;5317;49.048;8.468;2022-07-19T00:02:52;5.77;;;1.90;;
10537;SDS011;5317;49.048;8.468;2022-07-19T00:05:20;2.87;;;1.80;;
10537;SDS011;5317;49.048;8.468;2022-07-19T00:07:47;2.93;;;2.07;;
10537;SDS011;5317;49.048;8.468;2022-07-19T00:10:15;4.77;;;2.33;;
10537;SDS011;5317;49.048;8.468;2022-07-19T00:12:46;4.40;;;2.00;;
10537;SDS011;5317;49.048;8.468;2022-07-19T00:15:14;2.60;;;2.40;;
10537;SDS011;5317;49.048;8.468;2022-07-19T00:17:43;3.33;;;1.83;;
10537;SDS011;5317;49.048;8.468;2022-07-19T00:20:14;2.87;;;2.40;;
10537;SDS011;5317;49.048;8.468;2022-07-19T00:22:45;4.97;;;2.10;;
10537;SDS011;5317;49.048;8.468;2022-07-19T00:25:12;2.20;;;2.00;;
10537;SDS011;5317;49.048;8.468;2022-07-19T00:27:40;3.83;;;1.93;;
10537;SDS011;5317;49.048;8.468;2022-07-19T00:30:12;6.50;;;2.10;;
10537;SDS011;5317;49.048;8.468;2022-07-19T00:32:39;3.87;;;2.17;;
10537;SDS011;5317;49.048;8.468;2022-07-19T00:35:07;2.10;;;1.77;;
10537;SDS011;5317;49.048;8.468;2022-07-19T00:37:35;2.73;;;1.80;;
10537;SDS011;5317;49.048;8.468;2022-07-19T00:40:03;4.00;;;1.70;;
10537;SDS011;5317;49.048;8.468;2022-07-19T00:42:34;2.43;;;1.93;;
10537;SDS011;5317;49.048;8.468;2022-07-19T00:45:03;2.93;;;1.90;;
10537;SDS011;5317;49.048;8.468;2022-07-19T00:47:33;1.77;;;1.60;;
10537;SDS011;5317;49.048;8.468;2022-07-19T00:50:00;4.57;;;2.00;;
10537;SDS011;5317;49.048;8.468;2022-07-19T00:52:28;2.43;;;1.93;;
10537;SDS011;5317;49.048;8.468;2022-07-19T00:54:58;2.80;;;1.90;;
10537;SDS011;5317;49.048;8.468;2022-07-19T00:57:26;2.97;;;2.00;;
10537;SDS011;5317;49.048;8.468;2022-07-19T00:59:57;5.40;;;2.10;;
10537;SDS011;5317;49.048;8.468;2022-07-19T01:02:25;4.20;;;2.03;;
10537;SDS011;5317;49.048;8.468;2022-07-19T01:04:57;2.20;;;1.80;;
10537;SDS011;5317;49.048;8.468;2022-07-19T01:07:25;6.47;;;2.33;;
10537;SDS011;5317;49.048;8.468;2022-07-19T01:09:53;2.50;;;2.03;;
10537;SDS011;5317;49.048;8.468;2022-07-19T01:12:21;4.03;;;2.00;;
10537;SDS011;5317;49.048;8.468;2022-07-19T01:14:48;5.97;;;2.10;;
10537;SDS011;5317;49.048;8.468;2022-07-19T01:17:19;2.33;;;2.13;;
10537;SDS011;5317;49.048;8.468;2022-07-19T01:19:46;5.13;;;2.80;;
10537;SDS011;5317;49.048;8.468;2022-07-19T01:22:15;3.77;;;2.43;;
10537;SDS011;5317;49.048;8.468;2022-07-19T01:24:42;4.93;;;2.03;;
10537;SDS011;5317;49.048;8.468;2022-07-19T01:27:09;4.73;;;2.10;;
10537;SDS011;5317;49.048;8.468;2022-07-19T01:29:36;2.77;;;2.20;;
10537;SDS011;5317;49.048;8.468;2022-07-19T01:32:04;3.13;;;2.40;;
10537;SDS011;5317;49.048;8.468;2022-07-19T01:34:32;4.37;;;2.80;;
10537;SDS011;5317;49.048;8.468;2022-07-19T01:36:59;3.00;;;2.70;;
10537;SDS011;5317;49.048;8.468;2022-07-19T01:39:28;4.93;;;2.20;;
10537;SDS011;5317;49.048;8.468;2022-07-19T01:41:55;3.73;;;2.70;;
10537;SDS011;5317;49.048;8.468;2022-07-19T01:44:23;3.63;;;2.77;;
10537;SDS011;5317;49.048;8.468;2022-07-19T01:46:50;4.30;;;2.80;;
10537;SDS011;5317;49.048;8.468;2022-07-19T01:49:17;4.53;;;2.50;;
10537;SDS011;5317;49.048;8.468;2022-07-19T01:51:44;3.47;;;2.30;;
10537;SDS011;5317;49.048;8.468;2022-07-19T01:54:11;3.07;;;2.70;;
10537;SDS011;5317;49.048;8.468;2022-07-19T01:56:42;4.43;;;2.50;;
10537;SDS011;5317;49.048;8.468;2022-07-19T01:59:10;4.10;;;2.90;;
10537;SDS011;5317;49.048;8.468;2022-07-19T02:01:37;3.63;;;2.70;;
10537;SDS011;5317;49.048;8.468;2022-07-19T02:04:04;4.83;;;2.60;;
10537;SDS011;5317;49.048;8.468;2022-07-19T02:06:31;3.07;;;2.40;;
10537;SDS011;5317;49.048;8.468;2022-07-19T02:08:59;6.93;;;2.60;;
10537;SDS011;5317;49.048;8.468;2022-07-19T02:11:26;4.93;;;2.90;;
10537;SDS011;5317;49.048;8.468;2022-07-19T02:14:03;2.40;;;2.20;;
10537;SDS011;5317;49.048;8.468;2022-07-19T02:16:33;3.33;;;2.67;;
10537;SDS011;5317;49.048;8.468;2022-07-19T02:19:00;2.83;;;2.53;;
10537;SDS011;5317;49.048;8.468;2022-07-19T02:21:28;2.60;;;2.30;;
10537;SDS011;5317;49.048;8.468;2022-07-19T02:23:55;5.33;;;3.13;;
10537;SDS011;5317;49.048;8.468;2022-07-19T02:26:22;8.90;;;2.57;;
10537;SDS011;5317;49.048;8.468;2022-07-19T02:28:50;3.70;;;2.43;;
10537;SDS011;5317;49.048;8.468;2022-07-19T02:31:19;4.10;;;2.37;;
10537;SDS011;5317;49.048;8.468;2022-07-19T02:33:47;3.77;;;2.40;;
10537;SDS011;5317;49.048;8.468;2022-07-19T02:36:14;4.10;;;2.40;;
10537;SDS011;5317;49.048;8.468;2022-07-19T02:38:42;2.63;;;2.40;;
10537;SDS011;5317;49.048;8.468;2022-07-19T02:41:09;2.60;;;2.30;;
10537;SDS011;5317;49.048;8.468;2022-07-19T02:43:39;4.73;;;2.47;;
10537;SDS011;5317;49.048;8.468;2022-07-19T02:46:06;4.87;;;2.80;;
10537;SDS011;5317;49.048;8.468;2022-07-19T02:48:35;3.13;;;2.33;;
10537;SDS011;5317;49.048;8.468;2022-07-19T02:51:02;3.70;;;2.20;;
10537;SDS011;5317;49.048;8.468;2022-07-19T02:53:30;3.70;;;2.50;;
10537;SDS011;5317;49.048;8.468;2022-07-19T02:55:57;2.97;;;2.53;;
10537;SDS011;5317;49.048;8.468;2022-07-19T02:58:24;3.00;;;2.67;;
10537;SDS011;5317;49.048;8.468;2022-07-19T03:00:51;3.83;;;2.17;;
10537;SDS011;5317;49.048;8.468;2022-07-19T03:03:19;2.90;;;2.40;;
10537;SDS011;5317;49.048;8.468;2022-07-19T03:06:05;2.13;;;2.00;;
10537;SDS011;5317;49.048;8.468;2022-07-19T03:08:34;3.20;;;2.60;;
10537;SDS011;5317;49.048;8.468;2022-07-19T03:11:01;4.37;;;2.30;;
10537;SDS011;5317;49.048;8.468;2022-07-19T03:13:28;3.07;;;2.60;;
10537;SDS011;5317;49.048;8.468;2022-07-19T03:15:55;2.93;;;2.27;;
10537;SDS011;5317;49.048;8.468;2022-07-19T03:18:22;3.80;;;2.63;;
10537;SDS011;5317;49.048;8.468;2022-07-19T03:20:49;3.47;;;2.50;;
10537;SDS011;5317;49.048;8.468;2022-07-19T03:23:18;3.13;;;2.50;;
10537;SDS011;5317;49.048;8.468;2022-07-19T03:25:45;2.70;;;2.30;;
10537;SDS011;5317;49.048;8.468;2022-07-19T03:28:12;3.07;;;2.37;;
10537;SDS011;5317;49.048;8.468;2022-07-19T03:30:39;3.27;;;2.70;;
10537;SDS011;5317;49.048;8.468;2022-07-19T03:33:07;5.27;;;2.87;;
10537;SDS011;5317;49.048;8.468;2022-07-19T03:35:35;2.73;;;2.47;;
10537;SDS011;5317;49.048;8.468;2022-07-19T03:38:02;2.97;;;2.37;;
10537;SDS011;5317;49.048;8.468;2022-07-19T03:40:31;2.53;;;2.27;;
10537;SDS011;5317;49.048;8.468;2022-07-19T03:42:59;3.03;;;2.47;;
10537;SDS011;5317;49.048;8.468;2022-07-19T03:45:26;4.23;;;2.60;;
10537;SDS011;5317;49.048;8.468;2022-07-19T03:47:53;3.33;;;2.40;;
10537;SDS011;5317;49.048;8.468;2022-07-19T03:50:20;3.00;;;2.50;;
10537;SDS011;5317;49.048;8.468;2022-07-19T03:52:48;5.10;;;2.53;;
10537;SDS011;5317;49.048;8.468;2022-07-19T03:55:18;5.77;;;2.70;;
10537;SDS011;5317;49.048;8.468;2022-07-19T03:57:47;3.40;;;2.43;;
10537;SDS011;5317;49.048;8.468;2022-07-19T04:00:14;2.57;;;2.30;;
10537;SDS011;5317;49.048;8.468;2022-07-19T04:02:41;3.80;;;2.47;;
10537;SDS011;5317;49.048;8.468;2022-07-19T04:05:09;3.47;;;2.30;;
10537;SDS011;5317;49.048;8.468;2022-07-19T04:07:37;4.20;;;2.37;;
10537;SDS011;5317;49.048;8.468;2022-07-19T04:10:04;3.97;;;2.50;;
10537;SDS011;5317;49.048;8.468;2022-07-19T04:12:33;6.97;;;2.77;;
10537;SDS011;5317;49.048;8.468;2022-07-19T04:15:02;4.83;;;2.73;;
10537;SDS011;5317;49.048;8.468;2022-07-19T04:17:30;6.37;;;2.43;;
10537;SDS011;5317;49.048;8.468;2022-07-19T04:19:57;5.80;;;2.70;;
10537;SDS011;5317;49.048;8.468;2022-07-19T04:22:24;4.57;;;3.00;;
10537;SDS011;5317;49.048;8.468;2022-07-19T04:24:51;3.73;;;2.57;;
10537;SDS011;5317;49.048;8.468;2022-07-19T04:27:18;4.57;;;2.43;;
10537;SDS011;5317;49.048;8.468;2022-07-19T04:29:46;3.47;;;2.50;;
10537;SDS011;5317;49.048;8.468;2022-07-19T04:32:15;3.80;;;2.30;;
10537;SDS011;5317;49.048;8.468;2022-07-19T04:34:42;3.97;;;3.10;;
10537;SDS011;5317;49.048;8.468;2022-07-19T04:37:09;4.10;;;2.53;;
10537;SDS011;5317;49.048;8.468;2022-07-19T04:39:36;8.90;;;3.40;;
10537;SDS011;5317;49.048;8.468;2022-07-19T04:42:04;6.47;;;3.27;;
10537;SDS011;5317;49.048;8.468;2022-07-19T04:44:31;8.77;;;3.63;;
10537;SDS011;5317;49.048;8.468;2022-07-19T04:46:58;6.63;;;3.50;;
10537;SDS011;5317;49.048;8.468;2022-07-19T04:49:27;6.53;;;3.50;;
10537;SDS011;5317;49.048;8.468;2022-07-19T04:51:54;8.33;;;3.43;;
10537;SDS011;5317;49.048;8.468;2022-07-19T04:54:24;6.67;;;3.37;;
10537;SDS011;5317;49.048;8.468;2022-07-19T04:56:51;7.47;;;3.30;;
10537;SDS011;5317;49.048;8.468;2022-07-19T04:59:19;4.93;;;3.23;;
10537;SDS011;5317;49.048;8.468;2022-07-19T05:01:46;3.17;;;2.87;;
10537;SDS011;5317;49.048;8.468;2022-07-19T05:04:13;5.87;;;2.57;;
10537;SDS011;5317;49.048;8.468;2022-07-19T05:06:41;7.23;;;2.90;;
10537;SDS011;5317;49.048;8.468;2022-07-19T05:09:09;4.33;;;2.63;;
10537;SDS011;5317;49.048;8.468;2022-07-19T05:11:37;3.90;;;2.70;;
10537;SDS011;5317;49.048;8.468;2022-07-19T05:14:04;4.07;;;2.23;;
10537;SDS011;5317;49.048;8.468;2022-07-19T05:16:31;3.23;;;2.30;;
10537;SDS011;5317;49.048;8.468;2022-07-19T05:18:58;2.90;;;2.60;;
10537;SDS011;5317;49.048;8.468;2022-07-19T05:21:25;3.53;;;2.23;;
10537;SDS011;5317;49.048;8.468;2022-07-19T05:23:54;2.43;;;2.23;;
10537;SDS011;5317;49.048;8.468;2022-07-19T05:26:21;2.83;;;2.40;;
10537;SDS011;5317;49.048;8.468;2022-07-19T05:28:48;3.50;;;2.03;;
10537;SDS011;5317;49.048;8.468;2022-07-19T05:31:15;2.50;;;2.17;;
10537;SDS011;5317;49.048;8.468;2022-07-19T05:33:42;2.50;;;2.30;;
10537;SDS011;5317;49.048;8.468;2022-07-19T05:36:10;3.33;;;2.53;;
10537;SDS011;5317;49.048;8.468;2022-07-19T05:38:37;2.67;;;2.40;;
10537;SDS011;5317;49.048;8.468;2022-07-19T05:41:06;3.93;;;2.70;;
10537;SDS011;5317;49.048;8.468;2022-07-19T05:43:35;2.97;;;2.20;;
10537;SDS011;5317;49.048;8.468;2022-07-19T05:46:04;3.47;;;2.43;;
10537;SDS011;5317;49.048;8.468;2022-07-19T05:48:34;3.63;;;2.80;;
10537;SDS011;5317;49.048;8.468;2022-07-19T05:51:01;4.27;;;2.20;;
10537;SDS011;5317;49.048;8.468;2022-07-19T05:53:29;4.47;;;2.50;;
10537;SDS011;5317;49.048;8.468;2022-07-19T05:55:56;3.70;;;2.93;;
10537;SDS011;5317;49.048;8.468;2022-07-19T05:58:24;4.83;;;2.60;;
10537;SDS011;5317;49.048;8.468;2022-07-19T06:00:52;3.47;;;2.60;;
10537;SDS011;5317;49.048;8.468;2022-07-19T06:03:37;2.63;;;2.43;;
10537;SDS011;5317;49.048;8.468;2022-07-19T06:06:04;5.47;;;2.53;;
10537;SDS011;5317;49.048;8.468;2022-07-19T06:08:32;3.23;;;2.60;;
10537;SDS011;5317;49.048;8.468;2022-07-19T06:10:59;2.90;;;2.70;;
10537;SDS011;5317;49.048;8.468;2022-07-19T06:13:28;3.50;;;2.50;;
10537;SDS011;5317;49.048;8.468;2022-07-19T06:15:55;3.03;;;2.23;;
10537;SDS011;5317;49.048;8.468;2022-07-19T06:18:22;4.90;;;2.83;;
10537;SDS011;5317;49.048;8.468;2022-07-19T06:20:49;2.90;;;2.20;;
10537;SDS011;5317;49.048;8.468;2022-07-19T06:23:16;5.33;;;2.70;;
10537;SDS011;5317;49.048;8.468;2022-07-19T06:25:43;3.10;;;2.70;;
10537;SDS011;5317;49.048;8.468;2022-07-19T06:28:11;3.43;;;2.50;;
10537;SDS011;5317;49.048;8.468;2022-07-19T06:30:39;2.90;;;2.57;;
10537;SDS011;5317;49.048;8.468;2022-07-19T06:33:06;2.60;;;2.23;;
10537;SDS011;5317;49.048;8.468;2022-07-19T06:35:33;4.70;;;2.70;;
10537;SDS011;5317;49.048;8.468;2022-07-19T06:38:00;3.93;;;2.40;;
10537;SDS011;5317;49.048;8.468;2022-07-19T06:40:28;2.30;;;2.10;;
10537;SDS011;5317;49.048;8.468;2022-07-19T06:42:55;2.90;;;2.40;;
10537;SDS011;5317;49.048;8.468;2022-07-19T06:45:22;3.00;;;2.57;;
10537;SDS011;5317;49.048;8.468;2022-07-19T06:47:51;2.40;;;2.20;;
10537;SDS011;5317;49.048;8.468;2022-07-19T06:50:19;3.27;;;2.33;;
10537;SDS011;5317;49.048;8.468;2022-07-19T06:52:48;3.83;;;2.67;;
10537;SDS011;5317;49.048;8.468;2022-07-19T06:55:15;5.13;;;2.40;;
10537;SDS011;5317;49.048;8.468;2022-07-19T06:57:42;3.03;;;2.33;;
10537;SDS011;5317;49.048;8.468;2022-07-19T07:00:10;5.93;;;2.30;;
10537;SDS011;5317;49.048;8.468;2022-07-19T07:02:39;3.03;;;2.00;;
10537;SDS011;5317;49.048;8.468;2022-07-19T07:05:09;3.23;;;2.67;;
10537;SDS011;5317;49.048;8.468;2022-07-19T07:07:37;4.00;;;2.57;;
10537;SDS011;5317;49.048;8.468;2022-07-19T07:10:07;5.03;;;2.57;;
10537;SDS011;5317;49.048;8.468;2022-07-19T07:12:35;2.83;;;2.60;;
10537;SDS011;5317;49.048;8.468;2022-07-19T07:15:03;4.90;;;2.60;;
10537;SDS011;5317;49.048;8.468;2022-07-19T07:17:34;2.70;;;2.30;;
10537;SDS011;5317;49.048;8.468;2022-07-19T07:20:03;7.03;;;2.60;;
10537;SDS011;5317;49.048;8.468;2022-07-19T07:22:34;5.27;;;2.30;;
10537;SDS011;5317;49.048;8.468;2022-07-19T07:25:05;2.53;;;2.10;;
10537;SDS011;5317;49.048;8.468;2022-07-19T07:27:36;5.57;;;2.73;;
10537;SDS011;5317;49.048;8.468;2022-07-19T07:30:04;3.23;;;2.47;;
10537;SDS011;5317;49.048;8.468;2022-07-19T07:32:33;3.47;;;2.33;;
10537;SDS011;5317;49.048;8.468;2022-07-19T07:35:00;3.67;;;2.80;;
10537;SDS011;5317;49.048;8.468;2022-07-19T07:37:28;5.60;;;2.23;;
10537;SDS011;5317;49.048;8.468;2022-07-19T07:39:56;5.00;;;2.73;;
10537;SDS011;5317;49.048;8.468;2022-07-19T07:42:24;2.83;;;2.43;;
10537;SDS011;5317;49.048;8.468;2022-07-19T07:44:51;5.00;;;2.30;;
10537;SDS011;5317;49.048;8.468;2022-07-19T07:47:19;2.57;;;2.17;;
10537;SDS011;5317;49.048;8.468;2022-07-19T07:49:46;3.23;;;2.20;;
10537;SDS011;5317;49.048;8.468;2022-07-19T07:52:15;3.47;;;2.30;;
10537;SDS011;5317;49.048;8.468;2022-07-19T07:54:43;2.80;;;2.00;;
10537;SDS011;5317;49.048;8.468;2022-07-19T07:57:13;5.57;;;2.20;;
10537;SDS011;5317;49.048;8.468;2022-07-19T07:59:41;2.40;;;2.20;;
10537;SDS011;5317;49.048;8.468;2022-07-19T08:02:08;2.87;;;2.20;;
10537;SDS011;5317;49.048;8.468;2022-07-19T08:04:35;5.40;;;2.77;;
10537;SDS011;5317;49.048;8.468;2022-07-19T08:07:03;3.03;;;2.37;;
10537;SDS011;5317;49.048;8.468;2022-07-19T08:09:30;3.17;;;2.60;;
10537;SDS011;5317;49.048;8.468;2022-07-19T08:11:57;2.47;;;2.20;;
10537;SDS011;5317;49.048;8.468;2022-07-19T08:14:26;2.60;;;2.00;;
10537;SDS011;5317;49.048;8.468;2022-07-19T08:16:53;2.40;;;2.20;;
10537;SDS011;5317;49.048;8.468;2022-07-19T08:19:21;3.83;;;2.53;;
10537;SDS011;5317;49.048;8.468;2022-07-19T08:21:48;2.70;;;2.07;;
10537;SDS011;5317;49.048;8.468;2022-07-19T08:24:15;6.17;;;2.40;;
10537;SDS011;5317;49.048;8.468;2022-07-19T08:26:42;4.83;;;2.33;;
10537;SDS011;5317;49.048;8.468;2022-07-19T08:29:09;2.27;;;2.07;;
10537;SDS011;5317;49.048;8.468;2022-07-19T08:31:38;4.70;;;2.30;;
10537;SDS011;5317;49.048;8.468;2022-07-19T08:34:05;3.03;;;2.50;;
10537;SDS011;5317;49.048;8.468;2022-07-19T08:36:32;3.53;;;2.50;;
10537;SDS011;5317;49.048;8.468;2022-07-19T08:38:59;2.27;;;2.07;;
10537;SDS011;5317;49.048;8.468;2022-07-19T08:41:26;3.33;;;2.07;;
10537;SDS011;5317;49.048;8.468;2022-07-19T08:43:54;3.60;;;2.50;;
10537;SDS011;5317;49.048;8.468;2022-07-19T08:46:23;4.17;;;2.40;;
10537;SDS011;5317;49.048;8.468;2022-07-19T08:48:51;2.93;;;2.30;;
10537;SDS011;5317;49.048;8.468;2022-07-19T08:51:20;2.83;;;2.53;;
10537;SDS011;5317;49.048;8.468;2022-07-19T08:53:49;2.57;;;2.10;;
10537;SDS011;5317;49.048;8.468;2022-07-19T08:56:18;2.77;;;2.10;;
10537;SDS011;5317;49.048;8.468;2022-07-19T08:59:03;2.97;;;2.27;;
10537;SDS011;5317;49.048;8.468;2022-07-19T09:01:30;2.57;;;2.23;;
10537;SDS011;5317;49.048;8.468;2022-07-19T09:04:12;2.27;;;2.00;;
10537;SDS011;5317;49.048;8.468;2022-07-19T09:06:44;4.17;;;2.03;;
10537;SDS011;5317;49.048;8.468;2022-07-19T09:09:14;5.53;;;2.77;;
10537;SDS011;5317;49.048;8.468;2022-07-19T09:11:44;2.33;;;2.13;;
10537;SDS011;5317;49.048;8.468;2022-07-19T09:14:17;2.67;;;2.30;;
10537;SDS011;5317;49.048;8.468;2022-07-19T09:19:40;2.40;;;2.20;;
10537;SDS011;5317;49.048;8.468;2022-07-19T09:22:10;2.60;;;2.20;;
10537;SDS011;5317;49.048;8.468;2022-07-19T09:24:40;2.80;;;2.07;;
10537;SDS011;5317;49.048;8.468;2022-07-19T09:27:10;2.63;;;2.40;;
10537;SDS011;5317;49.048;8.468;2022-07-19T09:29:40;3.10;;;2.00;;
10537;SDS011;5317;49.048;8.468;2022-07-19T09:32:10;4.50;;;2.30;;
10537;SDS011;5317;49.048;8.468;2022-07-19T09:34:42;3.27;;;2.20;;
10537;SDS011;5317;49.048;8.468;2022-07-19T09:37:17;2.87;;;2.20;;
10537;SDS011;5317;49.048;8.468;2022-07-19T09:39:48;3.03;;;2.17;;
10537;SDS011;5317;49.048;8.468;2022-07-19T09:42:18;3.37;;;2.10;;
10537;SDS011;5317;49.048;8.468;2022-07-19T09:44:56;3.17;;;2.00;;
10537;SDS011;5317;49.048;8.468;2022-07-19T09:47:31;2.40;;;2.20;;
10537;SDS011;5317;49.048;8.468;2022-07-19T09:50:04;2.23;;;2.03;;
10537;SDS011;5317;49.048;8.468;2022-07-19T09:52:33;2.67;;;1.93;;
10537;SDS011;5317;49.048;8.468;2022-07-19T09:55:03;2.23;;;1.97;;
10537;SDS011;5317;49.048;8.468;2022-07-19T09:57:35;2.23;;;2.03;;
10537;SDS011;5317;49.048;8.468;2022-07-19T10:00:06;5.10;;;2.13;;
10537;SDS011;5317;49.048;8.468;2022-07-19T10:02:37;2.37;;;2.17;;
10537;SDS011;5317;49.048;8.468;2022-07-19T10:05:07;2.70;;;2.07;;
10537;SDS011;5317;49.048;8.468;2022-07-19T10:07:36;2.03;;;1.60;;
10537;SDS011;5317;49.048;8.468;2022-07-19T10:10:07;2.83;;;1.93;;
10537;SDS011;5317;49.048;8.468;2022-07-19T10:12:36;2.20;;;2.00;;
10537;SDS011;5317;49.048;8.468;2022-07-19T10:15:05;3.27;;;2.23;;
10537;SDS011;5317;49.048;8.468;2022-07-19T10:17:35;2.50;;;1.97;;
10537;SDS011;5317;49.048;8.468;2022-07-19T10:20:10;1.80;;;1.70;;
10537;SDS011;5317;49.048;8.468;2022-07-19T10:22:44;2.20;;;2.00;;
10537;SDS011;5317;49.048;8.468;2022-07-19T10:25:12;4.20;;;2.20;;
10537;SDS011;5317;49.048;8.468;2022-07-19T10:27:43;2.87;;;2.00;;
10537;SDS011;5317;49.048;8.468;2022-07-19T10:30:19;4.13;;;1.93;;
10537;SDS011;5317;49.048;8.468;2022-07-19T10:32:51;2.53;;;1.80;;
10537;SDS011;5317;49.048;8.468;2022-07-19T10:35:25;2.27;;;2.00;;
10537;SDS011;5317;49.048;8.468;2022-07-19T10:38:06;2.63;;;2.00;;
10537;SDS011;5317;49.048;8.468;2022-07-19T10:40:39;2.87;;;1.90;;
10537;SDS011;5317;49.048;8.468;2022-07-19T10:43:10;2.07;;;1.83;;
10537;SDS011;5317;49.048;8.468;2022-07-19T10:45:38;5.50;;;2.33;;
10537;SDS011;5317;49.048;8.468;2022-07-19T10:48:14;4.43;;;2.10;;
10537;SDS011;5317;49.048;8.468;2022-07-19T10:50:48;2.53;;;2.10;;
10537;SDS011;5317;49.048;8.468;2022-07-19T10:56:36;2.77;;;2.03;;
10537;SDS011;5317;49.048;8.468;2022-07-19T10:59:29;2.13;;;1.93;;
10537;SDS011;5317;49.048;8.468;2022-07-19T11:02:00;2.20;;;2.00;;
10537;SDS011;5317;49.048;8.468;2022-07-19T11:04:29;2.43;;;2.10;;
10537;SDS011;5317;49.048;8.468;2022-07-19T11:07:16;2.43;;;2.20;;
10537;SDS011;5317;49.048;8.468;2022-07-19T11:09:47;5.63;;;2.00;;
10537;SDS011;5317;49.048;8.468;2022-07-19T11:12:22;3.37;;;2.17;;
10537;SDS011;5317;49.048;8.468;2022-07-19T11:14:55;2.30;;;2.07;;
10537;SDS011;5317;49.048;8.468;2022-07-19T11:17:24;3.07;;;2.17;;
10537;SDS011;5317;49.048;8.468;2022-07-19T11:19:56;3.07;;;2.23;;
10537;SDS011;5317;49.048;8.468;2022-07-19T11:22:35;2.33;;;2.13;;
10537;SDS011;5317;49.048;8.468;2022-07-19T11:25:09;3.77;;;2.20;;
10537;SDS011;5317;49.048;8.468;2022-07-19T11:27:39;5.10;;;2.40;;
10537;SDS011;5317;49.048;8.468;2022-07-19T11:30:08;3.50;;;2.00;;
10537;SDS011;5317;49.048;8.468;2022-07-19T11:32:37;3.63;;;2.00;;
10537;SDS011;5317;49.048;8.468;2022-07-19T11:35:07;3.70;;;2.00;;
10537;SDS011;5317;49.048;8.468;2022-07-19T11:37:41;4.97;;;2.20;;
10537;SDS011;5317;49.048;8.468;2022-07-19T11:40:09;4.23;;;1.97;;
10537;SDS011;5317;49.048;8.468;2022-07-19T11:42:39;3.60;;;1.80;;
10537;SDS011;5317;49.048;8.468;2022-07-19T11:45:10;4.37;;;2.13;;
10537;SDS011;5317;49.048;8.468;2022-07-19T11:47:40;2.33;;;2.13;;
10537;SDS011;5317;49.048;8.468;2022-07-19T11:50:10;3.00;;;1.90;;
10537;SDS011;5317;49.048;8.468;2022-07-19T11:52:44;2.20;;;2.00;;
10537;SDS011;5317;49.048;8.468;2022-07-19T11:55:16;3.30;;;2.13;;
10537;SDS011;5317;49.048;8.468;2022-07-19T11:57:46;2.30;;;2.00;;
10537;SDS011;5317;49.048;8.468;2022-07-19T12:00:14;2.20;;;1.73;;
10537;SDS011;5317;49.048;8.468;2022-07-19T12:02:50;2.40;;;2.20;;
10537;SDS011;5317;49.048;8.468;2022-07-19T12:05:24;3.73;;;2.10;;
10537;SDS011;5317;49.048;8.468;2022-07-19T12:07:56;3.37;;;1.90;;
10537;SDS011;5317;49.048;8.468;2022-07-19T12:10:31;2.00;;;1.80;;
10537;SDS011;5317;49.048;8.468;2022-07-19T12:13:09;3.03;;;2.20;;
10537;SDS011;5317;49.048;8.468;2022-07-19T12:15:46;2.57;;;2.20;;
10537;SDS011;5317;49.048;8.468;2022-07-19T12:18:18;2.27;;;2.07;;
10537;SDS011;5317;49.048;8.468;2022-07-19T12:27:09;3.17;;;2.47;;
10537;SDS011;5317;49.048;8.468;2022-07-19T12:29:45;3.80;;;2.10;;
10537;SDS011;5317;49.048;8.468;2022-07-19T12:32:15;2.43;;;2.17;;
10537;SDS011;5317;49.048;8.468;2022-07-19T12:34:55;2.60;;;2.40;;
10537;SDS011;5317;49.048;8.468;2022-07-19T12:37:25;2.43;;;2.20;;
10537;SDS011;5317;49.048;8.468;2022-07-19T12:39:57;2.77;;;2.20;;
10537;SDS011;5317;49.048;8.468;2022-07-19T12:42:40;2.60;;;2.17;;
10537;SDS011;5317;49.048;8.468;2022-07-19T12:45:10;4.87;;;2.53;;
10537;SDS011;5317;49.048;8.468;2022-07-19T12:47:40;2.50;;;2.23;;
10537;SDS011;5317;49.048;8.468;2022-07-19T12:50:08;4.53;;;2.50;;
10537;SDS011;5317;49.048;8.468;2022-07-19T12:52:45;2.73;;;2.50;;
10537;SDS011;5317;49.048;8.468;2022-07-19T12:55:14;2.30;;;2.10;;
10537;SDS011;5317;49.048;8.468;2022-07-19T12:57:41;3.50;;;2.40;;
10537;SDS011;5317;49.048;8.468;2022-07-19T13:00:09;3.43;;;2.50;;
10537;SDS011;5317;49.048;8.468;2022-07-19T13:02:38;4.67;;;2.80;;
10537;SDS011;5317;49.048;8.468;2022-07-19T13:05:05;2.83;;;2.50;;
10537;SDS011;5317;49.048;8.468;2022-07-19T13:07:33;3.50;;;2.77;;
10537;SDS011;5317;49.048;8.468;2022-07-19T13:10:00;4.27;;;2.60;;
10537;SDS011;5317;49.048;8.468;2022-07-19T13:12:29;4.17;;;2.90;;
10537;SDS011;5317;49.048;8.468;2022-07-19T13:14:56;2.97;;;2.63;;
10537;SDS011;5317;49.048;8.468;2022-07-19T13:17:24;4.80;;;2.43;;
10537;SDS011;5317;49.048;8.468;2022-07-19T13:19:51;4.10;;;2.33;;
10537;SDS011;5317;49.048;8.468;2022-07-19T13:22:18;2.77;;;2.43;;
10537;SDS011;5317;49.048;8.468;2022-07-19T13:24:46;4.10;;;2.50;;
10537;SDS011;5317;49.048;8.468;2022-07-19T13:27:13;2.83;;;2.60;;
10537;SDS011;5317;49.048;8.468;2022-07-19T13:29:42;2.90;;;2.40;;
10537;SDS011;5317;49.048;8.468;2022-07-19T13:32:10;3.53;;;2.57;;
10537;SDS011;5317;49.048;8.468;2022-07-19T13:34:38;3.27;;;2.20;;
10537;SDS011;5317;49.048;8.468;2022-07-19T13:37:05;3.53;;;2.63;;
10537;SDS011;5317;49.048;8.468;2022-07-19T13:39:33;3.53;;;2.90;;
10537;SDS011;5317;49.048;8.468;2022-07-19T13:42:00;3.77;;;2.60;;
10537;SDS011;5317;49.048;8.468;2022-07-19T13:44:28;3.57;;;3.00;;
10537;SDS011;5317;49.048;8.468;2022-07-19T13:46:57;3.30;;;2.40;;
10537;SDS011;5317;49.048;8.468;2022-07-19T13:49:24;4.63;;;2.50;;
10537;SDS011;5317;49.048;8.468;2022-07-19T13:51:52;4.50;;;2.50;;
10537;SDS011;5317;49.048;8.468;2022-07-19T13:54:20;3.30;;;3.00;;
10537;SDS011;5317;49.048;8.468;2022-07-19T13:56:47;3.57;;;2.70;;
10537;SDS011;5317;49.048;8.468;2022-07-19T13:59:14;3.30;;;2.50;;
10537;SDS011;5317;49.048;8.468;2022-07-19T14:01:42;2.90;;;2.53;;
10537;SDS011;5317;49.048;8.468;2022-07-19T14:04:11;4.27;;;2.73;;
10537;SDS011;5317;49.048;8.468;2022-07-19T14:06:38;2.50;;;2.30;;
10537;SDS011;5317;49.048;8.468;2022-07-19T14:09:06;4.53;;;2.83;;
10537;SDS011;5317;49.048;8.468;2022-07-19T14:11:33;3.77;;;2.70;;
10537;SDS011;5317;49.048;8.468;2022-07-19T14:14:00;3.80;;;3.30;;
10537;SDS011;5317;49.048;8.468;2022-07-19T14:16:27;7.73;;;3.00;;
10537;SDS011;5317;49.048;8.468;2022-07-19T14:18:54;3.53;;;2.63;;
10537;SDS011;5317;49.048;8.468;2022-07-19T14:21:23;3.00;;;2.43;;
10537;SDS011;5317;49.048;8.468;2022-07-19T14:23:50;4.17;;;2.40;;
10537;SDS011;5317;49.048;8.468;2022-07-19T14:26:17;3.40;;;2.73;;
10537;SDS011;5317;49.048;8.468;2022-07-19T14:28:44;3.90;;;2.40;;
10537;SDS011;5317;49.048;8.468;2022-07-19T14:31:11;3.17;;;2.33;;
10537;SDS011;5317;49.048;8.468;2022-07-19T14:33:41;2.83;;;2.60;;
10537;SDS011;5317;49.048;8.468;2022-07-19T14:36:08;3.23;;;2.93;;
10537;SDS011;5317;49.048;8.468;2022-07-19T14:38:37;4.40;;;2.87;;
10537;SDS011;5317;49.048;8.468;2022-07-19T14:41:05;4.00;;;2.70;;
10537;SDS011;5317;49.048;8.468;2022-07-19T14:43:32;3.67;;;2.83;;
10537;SDS011;5317;49.048;8.468;2022-07-19T14:45:59;4.03;;;2.50;;
10537;SDS011;5317;49.048;8.468;2022-07-19T14:48:27;6.30;;;2.60;;
10537;SDS011;5317;49.048;8.468;2022-07-19T14:50:54;2.90;;;2.70;;
10537;SDS011;5317;49.048;8.468;2022-07-19T14:53:24;2.77;;;2.57;;
10537;SDS011;5317;49.048;8.468;2022-07-19T14:55:53;5.57;;;3.07;;
10537;SDS011;5317;49.048;8.468;2022-07-19T14:58:20;3.83;;;2.70;;
10537;SDS011;5317;49.048;8.468;2022-07-19T15:00:47;4.80;;;3.00;;
10537;SDS011;5317;49.048;8.468;2022-07-19T15:03:14;2.93;;;2.53;;
10537;SDS011;5317;49.048;8.468;2022-07-19T15:05:42;4.27;;;2.87;;
10537;SDS011;5317;49.048;8.468;2022-07-19T15:08:09;3.13;;;2.50;;
10537;SDS011;5317;49.048;8.468;2022-07-19T15:10:36;4.67;;;2.60;;
10537;SDS011;5317;49.048;8.468;2022-07-19T15:13:05;4.40;;;2.80;;
10537;SDS011;5317;49.048;8.468;2022-07-19T15:15:32;2.63;;;2.40;;
10537;SDS011;5317;49.048;8.468;2022-07-19T15:17:59;3.10;;;2.50;;
10537;SDS011;5317;49.048;8.468;2022-07-19T15:20:26;5.10;;;3.00;;
10537;SDS011;5317;49.048;8.468;2022-07-19T15:22:54;4.17;;;3.03;;